createdAt,value
2022-08-31T00:00:24.515Z,2.10
2022-08-31T00:03:32.995Z,2.20
2022-08-31T00:06:24.999Z,2.00
2022-08-31T00:09:15.183Z,2.10
2022-08-31T00:12:06.056Z,2.10
2022-08-31T00:14:57.351Z,2.10
2022-08-31T00:17:48.910Z,2.30
2022-08-31T00:20:40.533Z,2.00
2022-08-31T00:23:31.385Z,2.10
2022-08-31T00:26:24.929Z,2.00
2022-08-31T00:29:16.554Z,2.30
2022-08-31T00:32:07.357Z,2.40
2022-08-31T00:34:57.934Z,2.20
2022-08-31T00:37:48.622Z,2.20
2022-08-31T00:40:44.797Z,2.20
2022-08-31T00:43:43.520Z,2.20
2022-08-31T00:46:41.181Z,2.30
2022-08-31T00:49:35.609Z,2.40
2022-08-31T00:52:37.428Z,2.20
2022-08-31T00:55:34.038Z,2.20
2022-08-31T00:58:27.256Z,2.20
2022-08-31T01:01:20.197Z,1.90
2022-08-31T01:04:11.339Z,2.20
2022-08-31T01:07:03.230Z,2.30
2022-08-31T01:09:55.990Z,2.20
2022-08-31T01:12:49.655Z,2.40
2022-08-31T01:15:46.103Z,2.40
2022-08-31T01:18:37.670Z,2.20
2022-08-31T01:21:32.020Z,2.30
2022-08-31T01:24:26.655Z,2.10
2022-08-31T01:27:21.795Z,2.30
2022-08-31T01:30:21.523Z,2.10
2022-08-31T01:33:13.382Z,2.20
2022-08-31T01:36:05.856Z,2.20
2022-08-31T01:38:56.838Z,2.40
2022-08-31T01:41:52.044Z,2.00
2022-08-31T01:44:43.299Z,2.20
2022-08-31T01:47:34.701Z,2.20
2022-08-31T01:50:25.945Z,2.20
2022-08-31T01:53:19.711Z,2.50
2022-08-31T01:56:17.175Z,2.20
2022-08-31T01:59:11.708Z,2.10
2022-08-31T02:02:21.605Z,2.20
2022-08-31T02:05:14.647Z,2.40
2022-08-31T02:08:11.474Z,2.20
2022-08-31T02:11:02.306Z,2.50
2022-08-31T02:13:54.078Z,2.00
2022-08-31T02:16:46.647Z,2.30
2022-08-31T02:19:38.034Z,2.30
2022-08-31T02:22:29.414Z,2.20
2022-08-31T02:25:19.813Z,2.40
2022-08-31T02:28:12.841Z,2.20
2022-08-31T02:31:04.251Z,2.10
2022-08-31T02:33:55.390Z,2.30
2022-08-31T02:36:46.489Z,2.50
2022-08-31T02:39:38.335Z,2.60
2022-08-31T02:42:40.818Z,2.10
2022-08-31T02:45:42.526Z,2.30
2022-08-31T02:48:38.180Z,2.30
2022-08-31T02:51:30.946Z,2.40
2022-08-31T02:54:22.547Z,2.40
2022-08-31T02:57:13.857Z,2.20
2022-08-31T03:00:04.847Z,2.20
2022-08-31T03:02:56.115Z,2.20
2022-08-31T03:05:47.054Z,2.20
2022-08-31T03:08:42.631Z,2.30
2022-08-31T03:11:33.455Z,2.20
2022-08-31T03:14:25.906Z,2.20
2022-08-31T03:17:18.777Z,2.40
2022-08-31T03:20:10.927Z,2.40
2022-08-31T03:23:05.333Z,2.50
2022-08-31T03:25:56.465Z,2.30
2022-08-31T03:28:47.432Z,2.10
2022-08-31T03:32:10.056Z,2.10
2022-08-31T03:35:02.359Z,2.20
2022-08-31T03:37:53.975Z,2.20
2022-08-31T03:40:46.062Z,2.70
2022-08-31T03:43:37.352Z,2.20
2022-08-31T03:46:28.922Z,2.20
2022-08-31T03:49:20.900Z,2.30
2022-08-31T03:52:27.519Z,2.20
2022-08-31T03:55:23.965Z,2.20
2022-08-31T03:58:16.152Z,2.40
2022-08-31T04:01:07.508Z,2.50
2022-08-31T04:04:20.801Z,2.30
2022-08-31T04:07:30.518Z,2.40
2022-08-31T04:10:55.250Z,2.40
2022-08-31T04:14:04.691Z,2.30
2022-08-31T04:17:01.850Z,2.30
2022-08-31T04:20:01.360Z,2.20
2022-08-31T04:22:59.795Z,2.30
2022-08-31T04:25:59.561Z,2.20
2022-08-31T04:28:50.715Z,2.50
2022-08-31T04:31:41.933Z,2.20
2022-08-31T04:34:33.395Z,2.10
2022-08-31T04:37:23.815Z,2.30
2022-08-31T04:40:18.485Z,2.50
2022-08-31T04:43:11.465Z,2.30
2022-08-31T04:46:03.753Z,2.10
2022-08-31T04:48:54.571Z,1.90
2022-08-31T04:51:46.282Z,2.40
2022-08-31T04:54:38.395Z,2.10
2022-08-31T04:57:29.615Z,2.10
2022-08-31T05:00:21.483Z,2.40
2022-08-31T05:03:42.686Z,2.40
2022-08-31T05:06:36.385Z,2.40
2022-08-31T05:09:27.482Z,2.40
2022-08-31T05:12:18.845Z,2.10
2022-08-31T05:15:10.247Z,2.10
2022-08-31T05:18:02.234Z,2.30
2022-08-31T05:20:54.988Z,2.10
2022-08-31T05:23:47.297Z,2.30
2022-08-31T05:26:41.922Z,2.10
2022-08-31T05:29:33.042Z,2.50
2022-08-31T05:32:53.159Z,2.50
2022-08-31T05:35:44.092Z,2.50
2022-08-31T05:38:35.289Z,2.10
2022-08-31T05:41:26.600Z,2.00
2022-08-31T05:44:21.333Z,2.00
2022-08-31T05:47:13.423Z,2.20
2022-08-31T05:50:03.588Z,2.10
2022-08-31T05:53:00.488Z,2.30
2022-08-31T05:56:02.387Z,2.20
2022-08-31T05:58:56.928Z,2.60
2022-08-31T06:01:49.377Z,3.20
2022-08-31T06:04:45.677Z,2.50
2022-08-31T06:07:36.318Z,2.50
2022-08-31T06:10:33.546Z,2.40
2022-08-31T06:13:26.606Z,2.20
2022-08-31T06:16:18.842Z,2.40
2022-08-31T06:19:10.448Z,2.70
2022-08-31T06:22:02.634Z,2.50
2022-08-31T06:24:55.283Z,2.20
2022-08-31T06:27:47.721Z,2.40
2022-08-31T06:30:54.875Z,2.30
2022-08-31T06:33:46.287Z,2.70
2022-08-31T06:36:45.911Z,2.30
2022-08-31T06:39:45.165Z,2.10
2022-08-31T06:42:55.118Z,2.10
2022-08-31T06:45:58.421Z,2.70
2022-08-31T06:48:57.231Z,2.40
2022-08-31T06:51:48.829Z,2.20
2022-08-31T06:54:39.897Z,2.30
2022-08-31T06:57:49.745Z,2.10
2022-08-31T07:00:59.764Z,2.00
2022-08-31T07:04:03.738Z,2.00
2022-08-31T07:06:54.378Z,2.00
2022-08-31T07:09:45.428Z,1.70
2022-08-31T07:12:36.598Z,1.90
2022-08-31T07:15:28.090Z,2.50
2022-08-31T07:18:18.803Z,2.00
2022-08-31T07:21:17.337Z,2.10
2022-08-31T07:24:10.285Z,1.90
2022-08-31T07:27:04.804Z,2.50
2022-08-31T07:30:33.482Z,2.40
2022-08-31T07:33:25.819Z,3.20
2022-08-31T07:36:20.569Z,2.90
2022-08-31T07:39:54.446Z,3.00
2022-08-31T07:42:48.086Z,3.20
2022-08-31T07:45:39.449Z,3.40
2022-08-31T07:48:31.438Z,3.00
2022-08-31T07:51:46.292Z,3.30
2022-08-31T07:54:48.239Z,3.50
2022-08-31T07:57:50.862Z,3.00
2022-08-31T08:00:43.677Z,3.10
2022-08-31T08:03:34.315Z,3.00
2022-08-31T08:06:43.241Z,3.20
2022-08-31T08:09:56.698Z,2.90
2022-08-31T08:13:13.485Z,2.70
2022-08-31T08:16:17.676Z,3.00
2022-08-31T08:19:41.517Z,3.00
2022-08-31T08:22:51.754Z,3.10
2022-08-31T08:25:54.789Z,2.60
2022-08-31T08:28:52.813Z,2.70
2022-08-31T08:31:52.197Z,2.20
2022-08-31T08:34:46.175Z,2.70
2022-08-31T08:37:57.118Z,2.30
2022-08-31T08:40:52.254Z,2.70
2022-08-31T08:43:52.209Z,2.80
2022-08-31T08:46:49.855Z,2.90
2022-08-31T08:49:54.339Z,2.70
2022-08-31T08:52:48.921Z,2.60
2022-08-31T08:55:42.682Z,2.40
2022-08-31T08:58:35.717Z,3.00
2022-08-31T09:01:29.695Z,3.10
2022-08-31T09:04:39.881Z,2.60
2022-08-31T09:08:10.342Z,2.50
2022-08-31T09:11:14.910Z,2.50
2022-08-31T09:14:19.354Z,2.50
2022-08-31T09:17:17.939Z,2.30
2022-08-31T09:20:09.676Z,2.60
2022-08-31T09:23:00.954Z,2.60
2022-08-31T09:25:53.394Z,2.40
2022-08-31T09:28:56.129Z,2.40
2022-08-31T09:31:46.883Z,2.30
2022-08-31T09:34:38.779Z,2.30
2022-08-31T09:37:33.644Z,2.60
2022-08-31T09:40:36.342Z,2.30
2022-08-31T09:43:38.322Z,2.20
2022-08-31T09:46:31.862Z,2.60
2022-08-31T09:49:28.802Z,2.80
2022-08-31T09:52:44.701Z,2.60
2022-08-31T09:55:35.564Z,2.70
2022-08-31T09:58:31.039Z,2.30
2022-08-31T10:01:32.788Z,2.40
2022-08-31T10:04:27.482Z,2.70
2022-08-31T10:07:30.185Z,2.30
2022-08-31T10:10:30.476Z,2.70
2022-08-31T10:13:29.336Z,2.80
2022-08-31T10:16:27.035Z,2.80
2022-08-31T10:19:21.573Z,2.60
2022-08-31T10:22:25.751Z,3.00
2022-08-31T10:25:24.567Z,2.70
2022-08-31T10:28:20.936Z,2.50
2022-08-31T10:31:23.878Z,2.70
2022-08-31T10:34:35.502Z,2.80
2022-08-31T10:37:31.940Z,2.80
2022-08-31T10:40:27.738Z,2.60
2022-08-31T10:43:22.011Z,2.30
2022-08-31T10:46:12.753Z,2.30
2022-08-31T10:49:06.345Z,2.30
2022-08-31T10:52:09.686Z,2.50
2022-08-31T10:55:13.211Z,2.20
2022-08-31T10:58:14.838Z,2.10
2022-08-31T11:01:11.224Z,1.90
2022-08-31T11:04:29.921Z,2.00
2022-08-31T11:07:36.287Z,2.50
2022-08-31T11:10:34.218Z,2.50
2022-08-31T11:13:48.643Z,2.00
2022-08-31T11:17:03.525Z,2.20
2022-08-31T11:20:19.934Z,2.30
2022-08-31T11:23:29.976Z,2.60
2022-08-31T11:26:42.467Z,2.10
2022-08-31T11:29:46.679Z,2.30
2022-08-31T11:32:45.910Z,2.00
2022-08-31T11:36:06.749Z,2.30
2022-08-31T11:39:40.484Z,2.30
2022-08-31T11:43:01.395Z,2.20
2022-08-31T11:45:52.597Z,2.20
2022-08-31T11:49:00.815Z,2.10
2022-08-31T11:51:57.401Z,2.30
2022-08-31T11:55:08.163Z,2.20
2022-08-31T11:58:27.590Z,2.20
2022-08-31T12:01:47.423Z,2.00
2022-08-31T12:05:03.847Z,2.10
2022-08-31T12:07:54.254Z,2.10
2022-08-31T12:10:56.736Z,2.60
2022-08-31T12:13:56.953Z,2.90
2022-08-31T12:17:03.396Z,2.30
2022-08-31T12:20:07.712Z,2.40
2022-08-31T12:23:32.164Z,2.40
2022-08-31T12:26:45.150Z,2.40
2022-08-31T12:29:37.878Z,2.20
2022-08-31T12:32:36.611Z,2.30
2022-08-31T12:35:28.353Z,2.40
2022-08-31T12:38:23.493Z,2.40
2022-08-31T12:41:15.855Z,2.20
2022-08-31T12:44:14.334Z,2.40
2022-08-31T12:47:11.759Z,2.40
2022-08-31T12:50:13.818Z,2.00
2022-08-31T12:53:46.389Z,2.30
2022-08-31T12:56:45.493Z,2.50
2022-08-31T12:59:59.781Z,2.10
2022-08-31T13:02:54.279Z,2.30
2022-08-31T13:06:00.409Z,2.50
2022-08-31T13:08:54.192Z,2.30
2022-08-31T13:11:44.682Z,2.10
2022-08-31T13:14:43.786Z,2.20
2022-08-31T13:17:39.587Z,2.40
2022-08-31T13:20:41.201Z,2.10
2022-08-31T13:23:37.088Z,2.20
2022-08-31T13:26:27.935Z,2.50
2022-08-31T13:29:25.468Z,2.10
2022-08-31T13:32:32.568Z,2.00
2022-08-31T13:35:26.208Z,2.10
2022-08-31T13:38:17.578Z,2.00
2022-08-31T13:41:08.386Z,2.40
2022-08-31T13:44:03.755Z,1.90
2022-08-31T13:47:01.595Z,2.00
2022-08-31T13:49:55.542Z,2.10
2022-08-31T13:53:22.496Z,1.90
2022-08-31T13:56:44.099Z,2.50
2022-08-31T13:59:43.372Z,2.10
2022-08-31T14:02:39.630Z,2.30
2022-08-31T14:05:36.553Z,2.00
2022-08-31T14:08:28.410Z,2.10
2022-08-31T14:11:19.765Z,2.10
2022-08-31T14:14:13.537Z,2.10
2022-08-31T14:17:03.639Z,2.20
2022-08-31T14:19:54.127Z,2.20
2022-08-31T14:22:46.687Z,2.00
2022-08-31T14:25:38.009Z,2.00
2022-08-31T14:28:40.560Z,2.10
2022-08-31T14:31:34.930Z,2.10
2022-08-31T14:34:30.571Z,2.20
2022-08-31T14:37:23.201Z,2.20
2022-08-31T14:40:14.157Z,2.20
2022-08-31T14:43:04.393Z,2.10
2022-08-31T14:45:58.153Z,2.30
2022-08-31T14:48:48.953Z,2.30
2022-08-31T14:51:41.602Z,2.50
2022-08-31T14:54:34.850Z,2.30
2022-08-31T14:57:27.664Z,2.10
2022-08-31T15:00:23.311Z,2.50
2022-08-31T15:03:15.133Z,2.00
2022-08-31T15:06:05.778Z,2.20
2022-08-31T15:08:56.025Z,2.00
2022-08-31T15:11:46.427Z,2.10
2022-08-31T15:14:38.123Z,2.00
2022-08-31T15:17:30.064Z,2.30
2022-08-31T15:20:23.334Z,2.30
2022-08-31T15:23:16.251Z,2.20
2022-08-31T15:26:10.226Z,2.00
2022-08-31T15:29:02.879Z,2.20
2022-08-31T15:31:55.298Z,2.00
2022-08-31T15:34:53.593Z,2.10
2022-08-31T15:37:45.442Z,2.10
2022-08-31T15:40:39.998Z,2.20
2022-08-31T15:43:31.002Z,2.10
2022-08-31T15:46:42.531Z,2.00
2022-08-31T15:49:33.673Z,1.90
2022-08-31T15:52:25.861Z,2.30
2022-08-31T15:55:17.639Z,2.20
2022-08-31T15:58:09.779Z,2.00
2022-08-31T16:01:00.828Z,2.10
2022-08-31T16:03:54.253Z,2.00
2022-08-31T16:06:48.621Z,1.90
2022-08-31T16:09:41.073Z,2.50
2022-08-31T16:12:31.465Z,2.20
2022-08-31T16:15:24.730Z,2.20
2022-08-31T16:18:15.308Z,2.00
2022-08-31T16:21:09.986Z,2.20
2022-08-31T16:24:02.528Z,2.10
2022-08-31T16:26:57.777Z,2.00
2022-08-31T16:29:50.990Z,2.00
2022-08-31T16:32:41.825Z,2.10
2022-08-31T16:35:32.215Z,2.10
2022-08-31T16:38:22.809Z,2.30
2022-08-31T16:41:14.174Z,2.10
2022-08-31T16:44:21.575Z,2.00
2022-08-31T16:47:12.627Z,4.60
2022-08-31T16:50:08.774Z,11.50
2022-08-31T16:53:00.179Z,8.20
2022-08-31T16:55:50.247Z,8.50
2022-08-31T16:58:51.841Z,3.60
2022-08-31T17:01:47.219Z,2.70
2022-08-31T17:04:52.207Z,2.50
2022-08-31T17:07:43.895Z,2.50
2022-08-31T17:10:34.618Z,2.30
2022-08-31T17:13:27.026Z,2.80
2022-08-31T17:16:21.395Z,2.50
2022-08-31T17:19:13.495Z,2.10
2022-08-31T17:22:06.182Z,2.40
2022-08-31T17:24:57.853Z,2.50
2022-08-31T17:27:51.327Z,2.40
2022-08-31T17:30:47.038Z,2.20
2022-08-31T17:33:38.617Z,2.20
2022-08-31T17:36:37.344Z,2.40
2022-08-31T17:39:29.356Z,2.30
2022-08-31T17:42:21.021Z,2.30
2022-08-31T17:45:13.122Z,2.30
2022-08-31T17:48:03.700Z,2.40
2022-08-31T17:50:54.532Z,2.10
2022-08-31T17:53:44.544Z,2.40
2022-08-31T17:56:42.312Z,2.30
2022-08-31T17:59:41.091Z,2.40
2022-08-31T18:02:34.841Z,2.40
2022-08-31T18:05:25.092Z,2.30
2022-08-31T18:08:19.412Z,2.30
2022-08-31T18:11:10.877Z,2.40
2022-08-31T18:14:01.397Z,2.40
2022-08-31T18:16:59.194Z,2.60
2022-08-31T18:19:49.791Z,2.30
2022-08-31T18:22:40.355Z,2.40
2022-08-31T18:25:36.003Z,2.30
2022-08-31T18:28:27.419Z,2.40
2022-08-31T18:31:20.860Z,2.40
2022-08-31T18:34:14.158Z,3.30
2022-08-31T18:37:04.829Z,3.50
2022-08-31T18:40:12.852Z,3.40
2022-08-31T18:43:20.465Z,3.50
2022-08-31T18:46:11.127Z,2.90
2022-08-31T18:49:12.103Z,3.00
2022-08-31T18:52:03.327Z,2.70
2022-08-31T18:54:55.064Z,2.60
2022-08-31T18:57:49.134Z,2.50
2022-08-31T19:00:40.470Z,2.10
2022-08-31T19:03:31.054Z,2.40
2022-08-31T19:06:23.937Z,2.60
2022-08-31T19:09:19.430Z,2.50
2022-08-31T19:12:13.669Z,2.70
2022-08-31T19:15:04.598Z,2.60
2022-08-31T19:17:55.074Z,2.60
2022-08-31T19:20:45.163Z,2.50
2022-08-31T19:23:36.241Z,2.40
2022-08-31T19:26:30.190Z,2.20
2022-08-31T19:29:24.650Z,2.30
2022-08-31T19:32:18.103Z,2.40
2022-08-31T19:35:10.568Z,2.30
2022-08-31T19:38:01.479Z,2.50
2022-08-31T19:40:51.913Z,2.60
2022-08-31T19:43:53.322Z,2.20
2022-08-31T19:46:53.412Z,2.60
2022-08-31T19:49:47.711Z,2.30
2022-08-31T19:52:39.701Z,2.70
2022-08-31T19:55:30.603Z,2.50
2022-08-31T19:58:26.653Z,2.60
2022-08-31T20:01:18.305Z,2.70
2022-08-31T20:04:16.341Z,2.50
2022-08-31T20:07:07.822Z,2.40
2022-08-31T20:10:01.598Z,3.00
2022-08-31T20:12:52.466Z,3.00
2022-08-31T20:15:47.230Z,2.40
2022-08-31T20:18:38.379Z,2.40
2022-08-31T20:21:33.706Z,5.30
2022-08-31T20:24:27.026Z,3.60
2022-08-31T20:27:18.725Z,2.70
2022-08-31T20:30:10.718Z,2.70
2022-08-31T20:33:00.802Z,9.40
2022-08-31T20:35:50.883Z,4.60
2022-08-31T20:38:43.734Z,3.30
2022-08-31T20:41:36.593Z,2.70
2022-08-31T20:44:29.094Z,3.00
2022-08-31T20:47:36.558Z,3.50
2022-08-31T20:50:29.828Z,3.30
2022-08-31T20:53:42.445Z,4.40
2022-08-31T20:56:32.159Z,3.30
2022-08-31T20:59:24.002Z,2.60
2022-08-31T21:02:19.919Z,2.40
2022-08-31T21:05:37.928Z,2.50
2022-08-31T21:08:22.788Z,2.60
2022-08-31T21:11:17.519Z,2.70
2022-08-31T21:14:07.878Z,2.50
2022-08-31T21:16:58.203Z,2.60
2022-08-31T21:19:49.593Z,2.50
2022-08-31T21:22:39.999Z,2.40
2022-08-31T21:25:29.679Z,2.50
2022-08-31T21:28:19.865Z,2.80
2022-08-31T21:31:18.351Z,2.70
2022-08-31T21:34:10.816Z,2.80
2022-08-31T21:37:01.641Z,2.80
2022-08-31T21:39:57.657Z,2.70
2022-08-31T21:42:49.628Z,3.00
2022-08-31T21:45:40.492Z,2.80
2022-08-31T21:48:31.607Z,2.90
2022-08-31T21:51:26.317Z,3.00
2022-08-31T21:54:17.905Z,3.00
2022-08-31T21:57:09.020Z,2.80
2022-08-31T21:59:59.810Z,2.60
2022-08-31T22:02:50.982Z,2.70
2022-08-31T22:05:43.608Z,3.10
2022-08-31T22:08:34.425Z,2.90
2022-08-31T22:11:28.822Z,2.50
2022-08-31T22:14:23.248Z,2.50
2022-08-31T22:17:14.718Z,2.70
2022-08-31T22:20:05.353Z,2.70
2022-08-31T22:22:55.378Z,2.80
2022-08-31T22:25:47.187Z,3.00
2022-08-31T22:28:37.455Z,2.60
2022-08-31T22:31:28.933Z,2.80
2022-08-31T22:34:21.038Z,2.70
2022-08-31T22:37:13.925Z,2.90
2022-08-31T22:40:04.043Z,2.40
2022-08-31T22:42:55.406Z,2.80
2022-08-31T22:45:48.934Z,3.20
2022-08-31T22:48:40.691Z,2.90
2022-08-31T22:51:31.330Z,3.10
2022-08-31T22:54:22.371Z,2.80
2022-08-31T22:57:14.490Z,2.80
2022-08-31T23:00:05.702Z,2.90
2022-08-31T23:02:56.669Z,3.10
2022-08-31T23:05:48.222Z,2.70
2022-08-31T23:08:39.489Z,2.70
2022-08-31T23:11:31.275Z,2.50
2022-08-31T23:14:22.868Z,2.90
2022-08-31T23:17:16.843Z,2.60
2022-08-31T23:20:07.450Z,2.70
2022-08-31T23:23:01.154Z,2.80
2022-08-31T23:25:53.038Z,2.80
2022-08-31T23:28:47.324Z,2.90
2022-08-31T23:31:39.560Z,2.70
2022-08-31T23:34:30.412Z,2.70
2022-08-31T23:37:23.270Z,2.70
2022-08-31T23:40:17.271Z,2.70
2022-08-31T23:43:11.077Z,2.60
2022-08-31T23:46:04.492Z,2.60
2022-08-31T23:48:55.713Z,2.80
2022-08-31T23:51:46.466Z,2.60
2022-08-31T23:54:37.821Z,2.30
2022-08-31T23:57:32.331Z,2.40
